Time;durP1;ratioP1;P1;durP2;ratioP2;P2;SDS_P1;SDS_P2;PMS_P1;PMS_P2;Temp;Humidity;BMP_temperature;BMP_pressure;BME280_temperature;BME280_humidity;BME280_pressure;Samples;Min_cycle;Max_cycle;Signal;HPM_P1;HPM_P2
2022/10/20 00:00:47;;;;;;;;;;;;;;;;;;4987935;28;19921;-65
2022/10/20 00:03:18;;;;;;;;;;;;;;;;;;4988645;28;20008;-64
2022/10/20 00:05:46;;;;;;;;;;;;;;;;;;4988146;28;19929;-65
2022/10/20 00:08:14;;;;;;;;;;;;;;;;;;4985809;28;20467;-65
2022/10/20 00:10:39;;;;;;;;;;;;;;;;;;4967857;28;20004;-63
2022/10/20 00:13:05;;;;;;;;;;;;;;;;;;4987390;28;19922;-63
2022/10/20 00:15:31;;;;;;;;;;;;;;;;;;4981175;28;19922;-64
2022/10/20 00:17:56;;;;;;;;;;;;;;;;;;4985104;28;19999;-61
2022/10/20 00:20:24;;;;;;;;;;;;;;;;;;4989279;28;20293;-65
2022/10/20 00:22:59;;;;;;;;;;;;;;;;;;4985841;28;19949;-63
2022/10/20 00:25:25;;;;;;;;;;;;;;;;;;4985652;28;19925;-65
2022/10/20 00:27:53;;;;;;;;;;;;;;;;;;4985889;28;19917;-64
2022/10/20 00:30:19;;;;;;;;;;;;;;;;;;4986359;28;20562;-65
2022/10/20 00:32:47;;;;;;;;;;;;;;;;;;4986780;28;20009;-65
2022/10/20 00:35:13;;;;;;;;;;;;;;;;;;4969969;28;19926;-66
2022/10/20 00:37:38;;;;;;;;;;;;;;;;;;4982847;28;20014;-63
2022/10/20 00:40:06;;;;;;;;;;;;;;;;;;4983669;28;20990;-63
2022/10/20 00:42:34;;;;;;;;;;;;;;;;;;4984985;28;19921;-64
2022/10/20 00:44:59;;;;;;;;;;;;;;;;;;4986266;28;19924;-63
2022/10/20 00:47:25;;;;;;;;;;;;;;;;;;4987118;28;20048;-64
2022/10/20 00:49:53;;;;;;;;;;;;;;;;;;4986198;28;19918;-64
2022/10/20 00:52:18;;;;;;;;;;;;;;;;;;4984732;28;19924;-64
2022/10/20 00:54:43;;;;;;;;;;;;;;;;;;4971706;28;19929;-63
2022/10/20 00:57:11;;;;;;;;;;;;;;;;;;4986620;28;20017;-65
2022/10/20 00:59:38;;;;;;;;;;;;;;;;;;4984955;28;20067;-65
2022/10/20 01:02:04;;;;;;;;;;;;;;;;;;4983344;28;20001;-63
2022/10/20 01:04:32;;;;;;;;;;;;;;;;;;4977062;28;19917;-64
2022/10/20 01:06:57;;;;;;;;;;;;;;;;;;4984511;28;19933;-64
2022/10/20 01:09:25;;;;;;;;;;;;;;;;;;4963681;28;20088;-64
2022/10/20 01:11:50;;;;;;;;;;;;;;;;;;4962856;28;20408;-66
2022/10/20 01:14:15;;;;;;;;;;;;;;;;;;4971122;28;20634;-64
2022/10/20 01:16:41;;;;;;;;;;;;;;;;;;4986443;28;19921;-65
2022/10/20 01:19:06;;;;;;;;;;;;;;;;;;4985519;28;19969;-64
2022/10/20 01:21:34;;;;;;;;;;;;;;;;;;4981229;28;20782;-65
2022/10/20 01:24:02;;;;;;;;;;;;;;;;;;4984975;28;19932;-64
2022/10/20 01:29:45;;;;;;;;;;;;;;;;;;4984023;28;20803;-62
2022/10/20 01:32:11;;;;;;;;;;;;;;;;;;4985439;28;19925;-65
2022/10/20 01:34:37;;;;;;;;;;;;;;;;;;4976544;28;19932;-63
2022/10/20 01:37:06;;;;;;;;;;;;;;;;;;4972728;28;19932;-65
2022/10/20 01:39:31;;;;;;;;;;;;;;;;;;4980363;28;19921;-64
2022/10/20 01:41:59;;;;;;;;;;;;;;;;;;4986689;28;20957;-64
2022/10/20 01:44:27;;;;;;;;;;;;;;;;;;4976488;28;19960;-64
2022/10/20 01:46:54;;;;;;;;;;;;;;;;;;4985999;28;19956;-66
2022/10/20 01:49:20;;;;;;;;;;;;;;;;;;4993817;28;20198;-64
2022/10/20 01:51:45;;;;;;;;;;;;;;;;;;4969481;28;20558;-63
2022/10/20 01:54:11;;;;;;;;;;;;;;;;;;4982964;28;19960;-65
2022/10/20 01:56:36;;;;;;;;;;;;;;;;;;4960091;28;19937;-64
2022/10/20 01:59:02;;;;;;;;;;;;;;;;;;4982417;28;20085;-65
2022/10/20 02:01:30;;;;;;;;;;;;;;;;;;4985772;28;19917;-65
2022/10/20 02:03:55;;;;;;;;;;;;;;;;;;4987061;28;19967;-64
2022/10/20 02:06:23;;;;;;;;;;;;;;;;;;4983219;28;19918;-64
2022/10/20 02:08:50;;;;;;;;;;;;;;;;;;4965920;28;21845;-64
2022/10/20 02:11:16;;;;;;;;;;;;;;;;;;4987943;28;19929;-65
2022/10/20 02:13:44;;;;;;;;;;;;;;;;;;4983188;28;19921;-63
2022/10/20 02:16:09;;;;;;;;;;;;;;;;;;4985381;28;19976;-63
2022/10/20 02:18:35;;;;;;;;;;;;;;;;;;4977128;28;19972;-64
2022/10/20 02:21:02;;;;;;;;;;;;;;;;;;4999715;28;19921;-63
2022/10/20 02:23:28;;;;;;;;;;;;;;;;;;4982635;28;19922;-63
2022/10/20 02:25:53;;;;;;;;;;;;;;;;;;4963195;28;20053;-64
2022/10/20 02:28:21;;;;;;;;;;;;;;;;;;4984313;28;19917;-64
2022/10/20 02:30:47;;;;;;;;;;;;;;;;;;4984014;28;19975;-62
2022/10/20 02:33:12;;;;;;;;;;;;;;;;;;4984179;28;20525;-63
2022/10/20 02:35:37;;;;;;;;;;;;;;;;;;4984446;28;20365;-65
2022/10/20 02:38:07;;;;;;;;;;;;;;;;;;4983088;28;19921;-63
2022/10/20 02:40:32;;;;;;;;;;;;;;;;;;4960668;28;19960;-66
2022/10/20 02:42:58;;;;;;;;;;;;;;;;;;4970236;28;20000;-64
2022/10/20 02:45:23;;;;;;;;;;;;;;;;;;4984082;28;19933;-65
2022/10/20 02:47:48;;;;;;;;;;;;;;;;;;4979293;28;20004;-64
2022/10/20 02:50:16;;;;;;;;;;;;;;;;;;4983136;28;19928;-64
2022/10/20 02:52:41;;;;;;;;;;;;;;;;;;4984599;28;19941;-62
2022/10/20 02:55:06;;;;;;;;;;;;;;;;;;4966338;28;19926;-64
2022/10/20 02:57:32;;;;;;;;;;;;;;;;;;4982769;28;19968;-61
2022/10/20 02:59:57;;;;;;;;;;;;;;;;;;4978867;28;19925;-65
2022/10/20 03:02:23;;;;;;;;;;;;;;;;;;4985579;28;20115;-64
2022/10/20 03:04:48;;;;;;;;;;;;;;;;;;4983819;28;19921;-61
2022/10/20 03:07:13;;;;;;;;;;;;;;;;;;4982674;28;19935;-62
2022/10/20 03:09:43;;;;;;;;;;;;;;;;;;4993581;28;19961;-61
2022/10/20 03:12:13;;;;;;;;;;;;;;;;;;4986128;28;19917;-63
2022/10/20 03:14:38;;;;;;;;;;;;;;;;;;4984348;28;20016;-64
2022/10/20 03:17:04;;;;;;;;;;;;;;;;;;4986469;28;19921;-64
2022/10/20 03:19:30;;;;;;;;;;;;;;;;;;4982998;28;20875;-64
2022/10/20 03:21:57;;;;;;;;;;;;;;;;;;4966936;28;19922;-63
2022/10/20 03:24:23;;;;;;;;;;;;;;;;;;4971013;28;19924;-65
2022/10/20 03:26:48;;;;;;;;;;;;;;;;;;4984787;28;19921;-64
2022/10/20 03:29:13;;;;;;;;;;;;;;;;;;4983075;28;19926;-63
2022/10/20 03:31:38;;;;;;;;;;;;;;;;;;4997954;28;19922;-63
2022/10/20 03:34:04;;;;;;;;;;;;;;;;;;4982848;28;19925;-65
2022/10/20 03:36:30;;;;;;;;;;;;;;;;;;4983435;28;20526;-64
2022/10/20 03:38:55;;;;;;;;;;;;;;;;;;4977725;28;19922;-64
2022/10/20 03:41:23;;;;;;;;;;;;;;;;;;4983295;28;20245;-64
2022/10/20 03:43:48;;;;;;;;;;;;;;;;;;4974730;28;19932;-63
2022/10/20 03:46:13;;;;;;;;;;;;;;;;;;4980939;28;19917;-64
2022/10/20 03:48:39;;;;;;;;;;;;;;;;;;4989969;28;20373;-64
2022/10/20 03:51:05;;;;;;;;;;;;;;;;;;4990207;28;19917;-63
2022/10/20 03:53:30;;;;;;;;;;;;;;;;;;4986142;28;19951;-64
2022/10/20 03:55:55;;;;;;;;;;;;;;;;;;4987977;28;20028;-65
2022/10/20 03:58:21;;;;;;;;;;;;;;;;;;4986018;28;20013;-63
2022/10/20 04:00:46;;;;;;;;;;;;;;;;;;4987234;28;20165;-66
2022/10/20 04:03:11;;;;;;;;;;;;;;;;;;4980569;28;19918;-65
2022/10/20 04:05:37;;;;;;;;;;;;;;;;;;4986037;28;20009;-65
2022/10/20 04:08:03;;;;;;;;;;;;;;;;;;4985397;28;20621;-65
2022/10/20 04:10:28;;;;;;;;;;;;;;;;;;4986877;28;20554;-65
2022/10/20 04:12:53;;;;;;;;;;;;;;;;;;4989477;28;20016;-64
2022/10/20 04:15:18;;;;;;;;;;;;;;;;;;4987250;28;19922;-64
2022/10/20 04:17:44;;;;;;;;;;;;;;;;;;4986794;28;19930;-61
2022/10/20 04:20:10;;;;;;;;;;;;;;;;;;4987460;28;19980;-65
2022/10/20 04:22:35;;;;;;;;;;;;;;;;;;4986119;28;20325;-64
2022/10/20 04:25:00;;;;;;;;;;;;;;;;;;4988584;28;19918;-65
2022/10/20 04:27:26;;;;;;;;;;;;;;;;;;4986497;28;19926;-64
2022/10/20 04:29:53;;;;;;;;;;;;;;;;;;4985379;28;20072;-64
2022/10/20 04:32:19;;;;;;;;;;;;;;;;;;4985831;28;19924;-64
2022/10/20 04:34:44;;;;;;;;;;;;;;;;;;4969699;28;19943;-65
2022/10/20 04:37:09;;;;;;;;;;;;;;;;;;4979691;28;19921;-64
2022/10/20 04:39:37;;;;;;;;;;;;;;;;;;4988830;28;19918;-60
2022/10/20 04:42:03;;;;;;;;;;;;;;;;;;4979886;28;19991;-66
2022/10/20 04:44:30;;;;;;;;;;;;;;;;;;4988657;28;19921;-65
2022/10/20 04:46:58;;;;;;;;;;;;;;;;;;4986152;28;19921;-63
2022/10/20 04:49:26;;;;;;;;;;;;;;;;;;4985549;28;19917;-64
2022/10/20 04:51:51;;;;;;;;;;;;;;;;;;4986266;28;20939;-65
2022/10/20 04:54:19;;;;;;;;;;;;;;;;;;4984084;28;19932;-65
2022/10/20 04:56:44;;;;;;;;;;;;;;;;;;4984822;28;19925;-65
2022/10/20 04:59:10;;;;;;;;;;;;;;;;;;4986054;28;19925;-62
2022/10/20 05:01:36;;;;;;;;;;;;;;;;;;4985097;28;19929;-63
2022/10/20 05:04:04;;;;;;;;;;;;;;;;;;4984753;28;19921;-64
2022/10/20 05:06:32;;;;;;;;;;;;;;;;;;4984559;28;20010;-64
2022/10/20 05:09:02;;;;;;;;;;;;;;;;;;4988138;28;19918;-64
2022/10/20 05:11:28;;;;;;;;;;;;;;;;;;4987433;28;19929;-61
2022/10/20 05:14:03;;;;;;;;;;;;;;;;;;4980069;28;19971;-61
2022/10/20 05:16:31;;;;;;;;;;;;;;;;;;4986385;28;20007;-61
2022/10/20 05:18:57;;;;;;;;;;;;;;;;;;4962451;28;20011;-65
2022/10/20 05:21:22;;;;;;;;;;;;;;;;;;4986743;28;19922;-65
2022/10/20 05:23:50;;;;;;;;;;;;;;;;;;4985244;28;19918;-64
2022/10/20 05:26:15;;;;;;;;;;;;;;;;;;4983048;28;19959;-61
2022/10/20 05:28:40;;;;;;;;;;;;;;;;;;4986230;28;19921;-62
2022/10/20 05:31:08;;;;;;;;;;;;;;;;;;4962291;28;19921;-64
2022/10/20 05:33:33;;;;;;;;;;;;;;;;;;4985233;28;19925;-63
2022/10/20 05:36:01;;;;;;;;;;;;;;;;;;4978218;28;19926;-63
2022/10/20 05:38:31;;;;;;;;;;;;;;;;;;4985731;28;19990;-60
2022/10/20 05:40:56;;;;;;;;;;;;;;;;;;4965389;28;20384;-64
2022/10/20 05:43:22;;;;;;;;;;;;;;;;;;4987672;28;19918;-63
2022/10/20 05:45:47;;;;;;;;;;;;;;;;;;4986716;28;20051;-62
2022/10/20 05:48:13;;;;;;;;;;;;;;;;;;4979085;28;20867;-64
2022/10/20 05:50:39;;;;;;;;;;;;;;;;;;4985953;28;19922;-65
2022/10/20 05:53:07;;;;;;;;;;;;;;;;;;4981140;28;20383;-63
2022/10/20 05:55:34;;;;;;;;;;;;;;;;;;4983728;28;20608;-63
2022/10/20 05:58:03;;;;;;;;;;;;;;;;;;4983865;28;19928;-63
2022/10/20 06:00:30;;;;;;;;;;;;;;;;;;4983622;28;19961;-63
2022/10/20 06:02:55;;;;;;;;;;;;;;;;;;4981471;28;19991;-62
2022/10/20 06:05:23;;;;;;;;;;;;;;;;;;4970859;28;20399;-64
2022/10/20 06:07:49;;;;;;;;;;;;;;;;;;4983229;28;20958;-64
2022/10/20 06:10:15;;;;;;;;;;;;;;;;;;4984559;28;19928;-65
2022/10/20 06:12:40;;;;;;;;;;;;;;;;;;4977833;28;20403;-62
2022/10/20 06:15:05;;;;;;;;;;;;;;;;;;4986161;28;19929;-64
2022/10/20 06:17:31;;;;;;;;;;;;;;;;;;4986966;28;19918;-64
2022/10/20 06:19:56;;;;;;;;;;;;;;;;;;4986232;28;20022;-64
2022/10/20 06:22:22;;;;;;;;;;;;;;;;;;4977987;28;19921;-64
2022/10/20 06:24:47;;;;;;;;;;;;;;;;;;4983712;28;19922;-64
2022/10/20 06:27:13;;;;;;;;;;;;;;;;;;4984565;28;19928;-64
2022/10/20 06:29:38;;;;;;;;;;;;;;;;;;4977910;28;20072;-64
2022/10/20 06:32:03;;;;;;;;;;;;;;;;;;4977778;28;19921;-64
2022/10/20 06:34:32;;;;;;;;;;;;;;;;;;4961802;28;20012;-63
2022/10/20 06:36:59;;;;;;;;;;;;;;;;;;4981416;28;19921;-62
2022/10/20 06:39:27;;;;;;;;;;;;;;;;;;4985217;28;19921;-63
2022/10/20 06:41:52;;;;;;;;;;;;;;;;;;4984868;28;19925;-62
2022/10/20 06:44:20;;;;;;;;;;;;;;;;;;4983033;28;19975;-62
2022/10/20 06:46:45;;;;;;;;;;;;;;;;;;4986013;28;19939;-65
2022/10/20 06:49:13;;;;;;;;;;;;;;;;;;4983386;28;21897;-65
2022/10/20 06:51:39;;;;;;;;;;;;;;;;;;4977453;28;19917;-64
2022/10/20 06:54:04;;;;;;;;;;;;;;;;;;4984255;28;19929;-66
2022/10/20 06:56:29;;;;;;;;;;;;;;;;;;4976882;28;19926;-60
2022/10/20 06:58:59;;;;;;;;;;;;;;;;;;4984095;28;19921;-64
2022/10/20 07:01:25;;;;;;;;;;;;;;;;;;4984004;28;20012;-64
2022/10/20 07:03:55;;;;;;;;;;;;;;;;;;4977771;28;19921;-61
2022/10/20 07:06:21;;;;;;;;;;;;;;;;;;4982889;28;19977;-63
2022/10/20 07:08:47;;;;;;;;;;;;;;;;;;4984971;28;21890;-61
2022/10/20 07:11:12;;;;;;;;;;;;;;;;;;4984472;28;20300;-64
2022/10/20 07:13:40;;;;;;;;;;;;;;;;;;4983418;28;19922;-63
2022/10/20 07:16:05;;;;;;;;;;;;;;;;;;4968958;28;21766;-64
2022/10/20 07:18:30;;;;;;;;;;;;;;;;;;4988965;28;19921;-65
2022/10/20 07:20:56;;;;;;;;;;;;;;;;;;4987369;28;19922;-66
2022/10/20 07:23:22;;;;;;;;;;;;;;;;;;4986325;28;19917;-63
2022/10/20 07:25:50;;;;;;;;;;;;;;;;;;4973375;28;19928;-64
2022/10/20 07:28:16;;;;;;;;;;;;;;;;;;4981493;28;19921;-61
2022/10/20 07:30:41;;;;;;;;;;;;;;;;;;4986686;28;20009;-66
2022/10/20 07:33:06;;;;;;;;;;;;;;;;;;4986425;28;19921;-64
2022/10/20 07:35:34;;;;;;;;;;;;;;;;;;4986735;28;19922;-65
2022/10/20 07:38:02;;;;;;;;;;;;;;;;;;4985574;28;21004;-67
2022/10/20 07:40:27;;;;;;;;;;;;;;;;;;4988741;28;20668;-65
2022/10/20 07:42:53;;;;;;;;;;;;;;;;;;4984713;28;19917;-65
2022/10/20 07:45:18;;;;;;;;;;;;;;;;;;4985504;28;19968;-64
2022/10/20 07:47:44;;;;;;;;;;;;;;;;;;4980644;28;19917;-67
2022/10/20 07:50:09;;;;;;;;;;;;;;;;;;4988921;28;20824;-64
2022/10/20 07:52:35;;;;;;;;;;;;;;;;;;4985374;28;20015;-65
2022/10/20 07:55:00;;;;;;;;;;;;;;;;;;4985944;28;19926;-63
2022/10/20 07:57:27;;;;;;;;;;;;;;;;;;4981437;28;19925;-65
2022/10/20 07:59:53;;;;;;;;;;;;;;;;;;4988483;28;19969;-65
2022/10/20 08:02:19;;;;;;;;;;;;;;;;;;4988240;28;20475;-64
2022/10/20 08:04:44;;;;;;;;;;;;;;;;;;4986427;28;19925;-64
2022/10/20 08:07:10;;;;;;;;;;;;;;;;;;4984972;28;20387;-61
2022/10/20 08:09:39;;;;;;;;;;;;;;;;;;4989009;28;20028;-63
2022/10/20 08:12:04;;;;;;;;;;;;;;;;;;4978781;28;20448;-63
2022/10/20 08:14:36;;;;;;;;;;;;;;;;;;4963356;28;19936;-63
2022/10/20 08:17:02;;;;;;;;;;;;;;;;;;4988890;28;19921;-65
2022/10/20 08:19:29;;;;;;;;;;;;;;;;;;4987814;28;19928;-63
2022/10/20 08:21:57;;;;;;;;;;;;;;;;;;4961531;28;19917;-65
2022/10/20 08:24:25;;;;;;;;;;;;;;;;;;4985554;28;19922;-64
2022/10/20 08:26:53;;;;;;;;;;;;;;;;;;4988966;28;19953;-64
2022/10/20 08:29:21;;;;;;;;;;;;;;;;;;4972167;28;20104;-63
2022/10/20 08:31:46;;;;;;;;;;;;;;;;;;4971889;28;19921;-64
2022/10/20 08:34:12;;;;;;;;;;;;;;;;;;4986278;28;19995;-64
2022/10/20 08:36:37;;;;;;;;;;;;;;;;;;4997245;28;20635;-66
2022/10/20 08:39:05;;;;;;;;;;;;;;;;;;4986185;28;19917;-61
2022/10/20 08:41:32;;;;;;;;;;;;;;;;;;4987556;28;19918;-65
2022/10/20 08:44:00;;;;;;;;;;;;;;;;;;4986557;28;20135;-66
2022/10/20 08:46:26;;;;;;;;;;;;;;;;;;4986923;28;19943;-63
2022/10/20 08:48:54;;;;;;;;;;;;;;;;;;4977969;28;20381;-62
2022/10/20 08:51:22;;;;;;;;;;;;;;;;;;4984857;28;20017;-65
2022/10/20 08:53:47;;;;;;;;;;;;;;;;;;4987173;28;19925;-63
2022/10/20 08:56:13;;;;;;;;;;;;;;;;;;4985985;28;19968;-63
2022/10/20 08:58:42;;;;;;;;;;;;;;;;;;4986328;28;20016;-66
2022/10/20 09:01:09;;;;;;;;;;;;;;;;;;4980598;28;19926;-62
2022/10/20 09:03:35;;;;;;;;;;;;;;;;;;4982903;28;20429;-66
2022/10/20 09:06:03;;;;;;;;;;;;;;;;;;4985798;28;20004;-66
2022/10/20 09:08:28;;;;;;;;;;;;;;;;;;4978089;28;20034;-65
2022/10/20 09:10:55;;;;;;;;;;;;;;;;;;4984615;28;19921;-65
2022/10/20 09:13:23;;;;;;;;;;;;;;;;;;4986796;28;20301;-66
2022/10/20 09:15:48;;;;;;;;;;;;;;;;;;4986400;28;19929;-62
2022/10/20 09:18:13;;;;;;;;;;;;;;;;;;4985451;28;19918;-65
2022/10/20 09:20:39;;;;;;;;;;;;;;;;;;4985800;28;19975;-66
2022/10/20 09:23:04;;;;;;;;;;;;;;;;;;4961125;28;19918;-66
2022/10/20 09:25:30;;;;;;;;;;;;;;;;;;4971091;28;19960;-66
2022/10/20 09:27:55;;;;;;;;;;;;;;;;;;4985475;28;19933;-66
2022/10/20 09:30:21;;;;;;;;;;;;;;;;;;4978225;28;19960;-65
2022/10/20 09:32:48;;;;;;;;;;;;;;;;;;4984864;28;20012;-65
2022/10/20 09:35:14;;;;;;;;;;;;;;;;;;4984790;28;19932;-65
2022/10/20 09:37:39;;;;;;;;;;;;;;;;;;4982498;28;19917;-64
2022/10/20 09:40:04;;;;;;;;;;;;;;;;;;4987027;28;19921;-61
2022/10/20 09:42:29;;;;;;;;;;;;;;;;;;4984551;28;19917;-62
2022/10/20 09:44:57;;;;;;;;;;;;;;;;;;4987056;28;19918;-63
2022/10/20 09:47:22;;;;;;;;;;;;;;;;;;4984093;28;19933;-63
2022/10/20 09:49:50;;;;;;;;;;;;;;;;;;4982338;28;19949;-65
2022/10/20 09:52:16;;;;;;;;;;;;;;;;;;4984382;28;20051;-66
2022/10/20 09:54:42;;;;;;;;;;;;;;;;;;4979243;28;20293;-64
2022/10/20 09:57:07;;;;;;;;;;;;;;;;;;4983407;28;20059;-64
2022/10/20 09:59:35;;;;;;;;;;;;;;;;;;4979851;28;20012;-65
2022/10/20 10:02:01;;;;;;;;;;;;;;;;;;4984084;28;19929;-64
2022/10/20 10:04:26;;;;;;;;;;;;;;;;;;4985072;28;20898;-65
2022/10/20 10:06:51;;;;;;;;;;;;;;;;;;4968659;28;19922;-65
2022/10/20 10:09:17;;;;;;;;;;;;;;;;;;4970986;28;19928;-63
2022/10/20 10:11:42;;;;;;;;;;;;;;;;;;4978939;28;19989;-63
2022/10/20 10:14:10;;;;;;;;;;;;;;;;;;4983892;28;19925;-65
2022/10/20 10:16:35;;;;;;;;;;;;;;;;;;4983398;28;19925;-62
2022/10/20 10:19:04;;;;;;;;;;;;;;;;;;4983008;28;19955;-61
2022/10/20 10:21:31;;;;;;;;;;;;;;;;;;4983702;28;19959;-66
2022/10/20 10:23:59;;;;;;;;;;;;;;;;;;4966179;28;20547;-63
2022/10/20 10:26:24;;;;;;;;;;;;;;;;;;4982859;28;19925;-63
2022/10/20 10:28:50;;;;;;;;;;;;;;;;;;4983181;28;19936;-66
2022/10/20 10:31:18;;;;;;;;;;;;;;;;;;4963760;28;19918;-64
2022/10/20 10:33:44;;;;;;;;;;;;;;;;;;4983949;28;20035;-65
2022/10/20 10:36:11;;;;;;;;;;;;;;;;;;4983170;28;20455;-63
2022/10/20 10:38:37;;;;;;;;;;;;;;;;;;4981991;28;19946;-63
2022/10/20 10:41:03;;;;;;;;;;;;;;;;;;4982557;28;20044;-64
2022/10/20 10:43:28;;;;;;;;;;;;;;;;;;4983881;28;19983;-64
2022/10/20 10:45:56;;;;;;;;;;;;;;;;;;4982970;28;19918;-64
2022/10/20 10:48:24;;;;;;;;;;;;;;;;;;4984376;28;19964;-62
2022/10/20 10:50:50;;;;;;;;;;;;;;;;;;4984394;28;20683;-65
2022/10/20 10:53:15;;;;;;;;;;;;;;;;;;4990184;28;20050;-64
2022/10/20 10:55:40;;;;;;;;;;;;;;;;;;4988651;28;19940;-61
2022/10/20 10:58:06;;;;;;;;;;;;;;;;;;4989221;28;19970;-64
2022/10/20 11:00:32;;;;;;;;;;;;;;;;;;4987325;28;19917;-61
2022/10/20 11:02:57;;;;;;;;;;;;;;;;;;4972137;28;19925;-65
2022/10/20 11:05:22;;;;;;;;;;;;;;;;;;4986506;28;19921;-64
2022/10/20 11:07:47;;;;;;;;;;;;;;;;;;4986865;28;19921;-65
2022/10/20 11:10:15;;;;;;;;;;;;;;;;;;4985269;28;20008;-65
2022/10/20 11:12:40;;;;;;;;;;;;;;;;;;4989018;28;19929;-65
2022/10/20 11:15:06;;;;;;;;;;;;;;;;;;4985192;28;20541;-66
2022/10/20 11:17:32;;;;;;;;;;;;;;;;;;4981621;28;19921;-63
2022/10/20 11:19:57;;;;;;;;;;;;;;;;;;4980620;28;19960;-62
2022/10/20 11:22:23;;;;;;;;;;;;;;;;;;4961956;28;19945;-62
2022/10/20 11:24:48;;;;;;;;;;;;;;;;;;4990189;28;19971;-65
2022/10/20 11:27:16;;;;;;;;;;;;;;;;;;4986055;28;20478;-65
2022/10/20 11:29:42;;;;;;;;;;;;;;;;;;4985539;28;20635;-63
2022/10/20 11:32:10;;;;;;;;;;;;;;;;;;4986746;28;19976;-66
2022/10/20 11:34:37;;;;;;;;;;;;;;;;;;4987335;28;20384;-62
2022/10/20 11:37:03;;;;;;;;;;;;;;;;;;4962705;28;21636;-63
2022/10/20 11:39:28;;;;;;;;;;;;;;;;;;4988166;28;20004;-63
2022/10/20 11:41:54;;;;;;;;;;;;;;;;;;4986805;28;19924;-64
2022/10/20 11:44:19;;;;;;;;;;;;;;;;;;4986403;28;19929;-65
2022/10/20 11:46:46;;;;;;;;;;;;;;;;;;4979534;28;19917;-62
2022/10/20 11:49:14;;;;;;;;;;;;;;;;;;4984087;28;20058;-64
2022/10/20 11:51:42;;;;;;;;;;;;;;;;;;4985943;28;20745;-65
2022/10/20 11:54:08;;;;;;;;;;;;;;;;;;4987184;28;19928;-64
2022/10/20 11:57:39;;;;;;;;;;;;;;;;;;5069653;27;20379;-63
2022/10/20 12:00:07;;;;;;;;;;;;;;;;;;5043849;28;20532;-64
2022/10/20 12:02:32;;;;;;;;;;;;;;;;;;5026554;28;19951;-65
2022/10/20 12:04:57;;;;;;;;;;;;;;;;;;5034277;28;19916;-62
2022/10/20 12:07:25;;;;;;;;;;;;;;;;;;5017284;28;20012;-64
2022/10/20 12:09:51;;;;;;;;;;;;;;;;;;5026901;28;19921;-61
2022/10/20 12:12:16;;;;;;;;;;;;;;;;;;5028463;28;19964;-63
2022/10/20 12:14:42;;;;;;;;;;;;;;;;;;5029235;28;20549;-64
2022/10/20 12:17:07;;;;;;;;;;;;;;;;;;5026325;28;19921;-59
2022/10/20 12:19:32;;;;;;;;;;;;;;;;;;5028635;28;19916;-63
2022/10/20 12:21:57;;;;;;;;;;;;;;;;;;5026388;28;19921;-62
2022/10/20 12:24:23;;;;;;;;;;;;;;;;;;5045604;28;19921;-62
2022/10/20 12:26:48;;;;;;;;;;;;;;;;;;5028441;28;19932;-60
2022/10/20 12:29:13;;;;;;;;;;;;;;;;;;5017490;28;19917;-63
2022/10/20 12:31:39;;;;;;;;;;;;;;;;;;5027444;28;19921;-61
2022/10/20 12:34:07;;;;;;;;;;;;;;;;;;5018016;28;19953;-63
2022/10/20 12:36:36;;;;;;;;;;;;;;;;;;5028307;28;20358;-62
2022/10/20 12:39:01;;;;;;;;;;;;;;;;;;5029595;28;19921;-62
2022/10/20 12:41:27;;;;;;;;;;;;;;;;;;5031793;28;19916;-62
2022/10/20 12:43:52;;;;;;;;;;;;;;;;;;5028036;28;20390;-63
2022/10/20 12:46:18;;;;;;;;;;;;;;;;;;5017646;28;19917;-62
2022/10/20 12:48:43;;;;;;;;;;;;;;;;;;5027375;28;21274;-62
2022/10/20 12:51:09;;;;;;;;;;;;;;;;;;5034388;28;19917;-65
2022/10/20 12:53:34;;;;;;;;;;;;;;;;;;5025968;28;19960;-62
2022/10/20 12:56:00;;;;;;;;;;;;;;;;;;5027261;28;20384;-63
2022/10/20 12:58:26;;;;;;;;;;;;;;;;;;5022705;28;19921;-61
2022/10/20 13:00:51;;;;;;;;;;;;;;;;;;5024837;28;20008;-62
2022/10/20 13:03:17;;;;;;;;;;;;;;;;;;5024205;28;19920;-62
2022/10/20 13:05:44;;;;;;;;;;;;;;;;;;5033725;28;19921;-62
2022/10/20 13:08:10;;;;;;;;;;;;;;;;;;5014821;28;19917;-61
2022/10/20 13:10:35;;;;;;;;;;;;;;;;;;5018446;28;19932;-60
2022/10/20 13:13:00;;;;;;;;;;;;;;;;;;5013013;28;19917;-61
2022/10/20 13:15:26;;;;;;;;;;;;;;;;;;5011093;28;19921;-61
2022/10/20 13:17:54;;;;;;;;;;;;;;;;;;5003336;28;19918;-61
2022/10/20 13:20:19;;;;;;;;;;;;;;;;;;5014781;28;19917;-61
2022/10/20 13:22:45;;;;;;;;;;;;;;;;;;5012446;28;20402;-61
2022/10/20 13:28:02;;;;;;;;;;;;;;;;;;5010777;28;19960;-60
2022/10/20 13:30:30;;;;;;;;;;;;;;;;;;5020004;28;19921;-60
2022/10/20 13:32:55;;;;;;;;;;;;;;;;;;5019110;28;19925;-60
2022/10/20 13:35:25;;;;;;;;;;;;;;;;;;5012833;28;19922;-61
2022/10/20 13:37:53;;;;;;;;;;;;;;;;;;5011091;28;19925;-61
2022/10/20 13:40:18;;;;;;;;;;;;;;;;;;5011568;28;20027;-60
2022/10/20 13:42:48;;;;;;;;;;;;;;;;;;5003800;28;19925;-60
2022/10/20 13:45:14;;;;;;;;;;;;;;;;;;5013108;28;20356;-60
2022/10/20 13:47:39;;;;;;;;;;;;;;;;;;5043513;28;19928;-58
2022/10/20 13:50:09;;;;;;;;;;;;;;;;;;5020606;28;19950;-60
2022/10/20 13:52:35;;;;;;;;;;;;;;;;;;5010496;28;19924;-60
2022/10/20 13:55:02;;;;;;;;;;;;;;;;;;5012316;28;19925;-60
2022/10/20 13:57:32;;;;;;;;;;;;;;;;;;5010941;28;19944;-60
2022/10/20 13:59:57;;;;;;;;;;;;;;;;;;5026596;28;19917;-60
2022/10/20 14:02:22;;;;;;;;;;;;;;;;;;5012191;28;19921;-60
2022/10/20 14:04:51;;;;;;;;;;;;;;;;;;5011375;28;19923;-60
2022/10/20 14:07:19;;;;;;;;;;;;;;;;;;5010962;28;19922;-61
2022/10/20 14:09:45;;;;;;;;;;;;;;;;;;5019583;28;20379;-61
2022/10/20 14:12:12;;;;;;;;;;;;;;;;;;5010116;28;19921;-59
2022/10/20 14:14:37;;;;;;;;;;;;;;;;;;5043025;28;19921;-60
2022/10/20 14:17:03;;;;;;;;;;;;;;;;;;5001020;28;19921;-59
2022/10/20 14:19:29;;;;;;;;;;;;;;;;;;4996834;28;19925;-60
2022/10/20 14:21:55;;;;;;;;;;;;;;;;;;5010847;28;20376;-59
2022/10/20 14:24:21;;;;;;;;;;;;;;;;;;5020531;28;19921;-60
2022/10/20 14:26:47;;;;;;;;;;;;;;;;;;5013088;28;19928;-59
2022/10/20 14:29:13;;;;;;;;;;;;;;;;;;5016239;28;19914;-60
2022/10/20 14:31:38;;;;;;;;;;;;;;;;;;5013776;28;19928;-58
2022/10/20 14:37:01;;;;;;;;;;;;;;;;;;5011195;28;19921;-58
2022/10/20 14:39:26;;;;;;;;;;;;;;;;;;5008924;28;19921;-58
2022/10/20 14:41:51;;;;;;;;;;;;;;;;;;5010877;28;19921;-59
2022/10/20 14:44:17;;;;;;;;;;;;;;;;;;5011896;28;19921;-58
2022/10/20 14:46:43;;;;;;;;;;;;;;;;;;5009835;28;19944;-58
2022/10/20 14:49:11;;;;;;;;;;;;;;;;;;5009021;28;20055;-58
2022/10/20 14:51:39;;;;;;;;;;;;;;;;;;4999957;28;19932;-59
2022/10/20 14:54:04;;;;;;;;;;;;;;;;;;5009055;28;19947;-60
2022/10/20 14:56:30;;;;;;;;;;;;;;;;;;5009178;28;19929;-61
2022/10/20 14:58:57;;;;;;;;;;;;;;;;;;5011893;28;19984;-60
2022/10/20 15:01:23;;;;;;;;;;;;;;;;;;5008520;28;19921;-61
2022/10/20 15:03:48;;;;;;;;;;;;;;;;;;5041398;28;20007;-60
2022/10/20 15:06:16;;;;;;;;;;;;;;;;;;5042025;28;19920;-60
2022/10/20 15:08:41;;;;;;;;;;;;;;;;;;5010987;28;20522;-61
2022/10/20 15:11:07;;;;;;;;;;;;;;;;;;5001794;28;19921;-62
2022/10/20 15:13:32;;;;;;;;;;;;;;;;;;5009529;28;20388;-61
2022/10/20 15:15:57;;;;;;;;;;;;;;;;;;5011143;28;19932;-62
2022/10/20 15:18:23;;;;;;;;;;;;;;;;;;5013965;28;19960;-63
2022/10/20 15:20:49;;;;;;;;;;;;;;;;;;5011584;28;19957;-63
2022/10/20 15:23:14;;;;;;;;;;;;;;;;;;5009395;28;19921;-63
2022/10/20 15:25:45;;;;;;;;;;;;;;;;;;5010302;28;20605;-62
2022/10/20 15:28:10;;;;;;;;;;;;;;;;;;5007591;28;19921;-60
2022/10/20 15:30:36;;;;;;;;;;;;;;;;;;5010337;28;20727;-61
2022/10/20 15:33:04;;;;;;;;;;;;;;;;;;5011448;28;19972;-60
2022/10/20 15:35:32;;;;;;;;;;;;;;;;;;5015856;28;19921;-61
2022/10/20 15:37:58;;;;;;;;;;;;;;;;;;5022161;28;20796;-63
2022/10/20 15:40:23;;;;;;;;;;;;;;;;;;5009890;28;19928;-61
2022/10/20 15:42:48;;;;;;;;;;;;;;;;;;4995449;28;21700;-61
2022/10/20 15:45:17;;;;;;;;;;;;;;;;;;5010788;28;20577;-60
2022/10/20 15:47:43;;;;;;;;;;;;;;;;;;5009483;28;19921;-61
2022/10/20 15:50:11;;;;;;;;;;;;;;;;;;5012553;28;19928;-60
2022/10/20 15:52:39;;;;;;;;;;;;;;;;;;5009422;28;20300;-61
2022/10/20 15:55:04;;;;;;;;;;;;;;;;;;5011690;28;19921;-61
2022/10/20 15:57:29;;;;;;;;;;;;;;;;;;5010510;28;19933;-62
2022/10/20 15:59:55;;;;;;;;;;;;;;;;;;4995332;28;19917;-62
2022/10/20 16:02:23;;;;;;;;;;;;;;;;;;5010110;28;20438;-62
2022/10/20 16:04:48;;;;;;;;;;;;;;;;;;5011282;28;19925;-62
2022/10/20 16:07:16;;;;;;;;;;;;;;;;;;5009273;28;19917;-63
2022/10/20 16:09:41;;;;;;;;;;;;;;;;;;5012474;28;20461;-62
2022/10/20 16:12:06;;;;;;;;;;;;;;;;;;5016224;28;19964;-62
2022/10/20 16:14:32;;;;;;;;;;;;;;;;;;5012543;28;19920;-62
2022/10/20 16:17:02;;;;;;;;;;;;;;;;;;5009998;28;19925;-61
2022/10/20 16:19:28;;;;;;;;;;;;;;;;;;5011628;28;19918;-62
2022/10/20 16:21:54;;;;;;;;;;;;;;;;;;5000895;28;19932;-62
2022/10/20 16:24:22;;;;;;;;;;;;;;;;;;5010574;28;19924;-61
2022/10/20 16:26:47;;;;;;;;;;;;;;;;;;5007987;28;20549;-61
2022/10/20 16:29:13;;;;;;;;;;;;;;;;;;5011758;28;19933;-63
2022/10/20 16:31:40;;;;;;;;;;;;;;;;;;4996798;28;20430;-62
2022/10/20 16:34:06;;;;;;;;;;;;;;;;;;5011216;28;19921;-61
2022/10/20 16:36:34;;;;;;;;;;;;;;;;;;5008170;28;20011;-61
2022/10/20 16:39:00;;;;;;;;;;;;;;;;;;5012678;28;20039;-60
2022/10/20 16:41:27;;;;;;;;;;;;;;;;;;5009012;28;20055;-61
2022/10/20 16:43:53;;;;;;;;;;;;;;;;;;5013154;28;19958;-61
2022/10/20 16:46:18;;;;;;;;;;;;;;;;;;5046032;28;19920;-61
2022/10/20 16:48:43;;;;;;;;;;;;;;;;;;5015585;28;20036;-62